Skip Navigation Links
NOAA logo - Click to go to the NOAA homepage
NOAA's National Weather Service
Alaska Aviation Weather Unit
  NWS logo - Click to go to the NWS homepage
Left Navbar Graphic     03 AKDT = 11 GMT

   
NOAA is celebrating 200 years of science, service, and stewardship. Visit the NOAA 200th celebration Web site to learn more.
USA.gov is the U.S. Government's official Web portal to all Federal, state and local government Web resources and services.
Facebook
NWS on Facebook

AAWU Home :: Display TAF Add Bookmark
TAF PAVD 290522Z 2906/3006 00000KT 3/4SM -SN VV003
     FM291700 VRB03KT 2SM -SNRA BR SCT001 OVC012
     FM300100 VRB03KT P6SM SCT012 BKN022
      TEMPO 3001/3004 4SM -SN BKN012=

PAVD 290516Z 00000KT 3/4SM VV003 00/M01 A2954= METAR PAVD 290516Z 00000KT 3/4SM VV003 00/M01 A2954 RMK AO1 0447Z WEA: -SN BR TWR WND 00000KT P0001= PAVD 290536Z 00000KT 3/4SM VV003 00/M01 A2954= METAR PAVD 290536Z 00000KT 3/4SM VV003 00/M01 A2954 RMK AO1 0447Z WEA: -SN BR TWR WND 00000KT P0002= METAR PAVD 290556Z 00000KT 1 1/2SM SCT001 BKN008 OVC018 00/M01 A2954= PAVD 290616Z 00000KT 1 3/4SM SCT003 SCT010 OVC016 00/M01 A2954= METAR PAVD 290616Z 00000KT 1 3/4SM SCT003 SCT010 OVC016 00/M01 A2954 RMK AO1 P0001= PAVD 290636Z 00000KT 1 1/4SM BKN003 BKN008 OVC017 00/M01 A2954= METAR PAVD 290636Z 00000KT 1 1/4SM BKN003 BKN008 OVC017 00/M01 A2954 RMK AO1 P0002= METAR PAVD 290656Z 00000KT 1 1/2SM SCT004 BKN015 OVC026 00/M01 A2954= PAVD 290716Z 00000KT 1SM BKN015 BKN020 OVC026 00/M01 A2954= METAR PAVD 290716Z 00000KT 1SM BKN015 BKN020 OVC026 00/M01 A2954 RMK AO1 P0001= PAVD 290736Z 00000KT 1 1/2SM BKN017 OVC022 00/M01 A2954= METAR PAVD 290736Z 00000KT 1 1/2SM BKN017 OVC022 00/M01 A2954 RMK AO1 P0001= METAR PAVD 290756Z 00000KT 3/4SM BKN003 OVC017 00/00 A2954= METAR PAVD 290816Z 00000KT 1/2SM OVC003 00/M01 A2954= METAR PAVD 290816Z 00000KT 1/2SM OVC003 00/M01 A2954 RMK AO1= METAR PAVD 290836Z 00000KT 1 3/4SM OVC003 00/M01 A2954= METAR PAVD 290836Z 00000KT 1 3/4SM OVC003 00/M01 A2954 RMK AO1= METAR PAVD 290856Z 00000KT 1 1/4SM OVC004 00/00 A2954= METAR PAVD 290916Z 00000KT 5SM BKN004 OVC041 00/00 A2954= METAR PAVD 290916Z 00000KT 5SM BKN004 OVC041 00/00 A2954 RMK AO1 = PAVD 290936Z 00000KT 2SM BKN003 BKN011 OVC041 00/00 A2953= METAR PAVD 290936Z 00000KT 2SM BKN003 BKN011 OVC041 00/00 A2953 RMK AO1= METAR PAVD 290956Z 00000KT 6SM FEW002 OVC039 00/00 A2952= PAVD 291016Z 00000KT 4SM OVC039 00/M01 A2952= METAR PAVD 291016Z 00000KT 4SM OVC039 00/M01 A2952 RMK AO1 = PAVD 291036Z 00000KT 4SM FEW026 OVC041 00/00 A2951= METAR PAVD 291036Z 00000KT 4SM FEW026 OVC041 00/00 A2951 RMK AO1 = METAR PAVD 291056Z 00000KT 3SM FEW026 SCT032 BKN045 00/M01 A2951 RMK AO1=
 Alaska TAF Map

NOAA's National Weather Service
Alaska Aviation Weather Unit
6930 Sand Lake Road
Anchorage, AK 99502-1845
Disclaimer
Credits
Glossary
Privacy Policy
About Us
Career Opportunities
Contact AAWU Internet Services Site last modified: April, 17th 2012